Time,TemperatureF,DewpointF,PressureIn,WindDirection,WindDirectionDegrees,WindSpeedMPH,WindSpeedGustMPH,Humidity,HourlyPrecipIn,Conditions,Clouds,dailyrainin,SoftwareType,DateUTC
2013-02-27 00:20:00,51.0,-99.9,-100.00,ENE,59,6.0,11.0,-999,-99.99,,,-99.99,,2013-02-27 07:20:00,
2013-02-27 00:52:00,51.0,-99.9,-100.00,East,90,8.0,12.0,-999,-99.99,,,-99.99,,2013-02-27 07:52:00,
2013-02-27 01:01:00,51.0,-99.9,-100.00,ENE,59,6.0,11.0,-999,-99.99,,,-99.99,,2013-02-27 08:01:00,
2013-02-27 01:12:00,51.0,-99.9,-100.00,ENE,59,6.0,11.0,-999,-99.99,,,-99.99,,2013-02-27 08:12:00,
2013-02-27 01:20:00,48.0,-99.9,-100.00,ENE,64,9.0,10.0,-999,-99.99,,,-99.99,,2013-02-27 08:20:00,
2013-02-27 01:32:00,50.0,-99.9,-100.00,North,6,12.0,15.0,-999,-99.99,,,-99.99,,2013-02-27 08:32:00,
2013-02-27 01:42:00,50.0,-99.9,-100.00,North,6,12.0,15.0,-999,-99.99,,,-99.99,,2013-02-27 08:42:00,
2013-02-27 01:53:00,50.0,-99.9,-100.00,North,6,12.0,15.0,-999,-99.99,,,-99.99,,2013-02-27 08:53:00,
2013-02-27 02:02:00,48.0,-99.9,-100.00,ENE,64,9.0,10.0,-999,-99.99,,,-99.99,,2013-02-27 09:02:00,
2013-02-27 02:12:00,48.0,-99.9,-100.00,ENE,64,9.0,10.0,-999,-99.99,,,-99.99,,2013-02-27 09:12:00,
2013-02-27 04:00:00,48.0,-99.9,-100.00,SE,142,2.0,10.0,-999,-99.99,,,-99.99,,2013-02-27 11:00:00,
2013-02-27 04:03:00,50.0,-99.9,-100.00,ENE,64,10.0,15.0,-999,-99.99,,,-99.99,,2013-02-27 11:03:00,
2013-02-27 04:12:00,50.0,-99.9,-100.00,ENE,64,10.0,15.0,-999,-99.99,,,-99.99,,2013-02-27 11:12:00,
2013-02-27 04:22:00,48.0,-99.9,-100.00,NNE,27,6.0,7.0,-999,-99.99,,,-99.99,,2013-02-27 11:22:00,
2013-02-27 04:32:00,48.0,-99.9,-100.00,NNE,27,6.0,7.0,-999,-99.99,,,-99.99,,2013-02-27 11:32:00,
2013-02-27 04:52:00,48.0,-99.9,-100.00,SE,142,2.0,10.0,-999,-99.99,,,-99.99,,2013-02-27 11:52:00,
2013-02-27 06:32:00,47.0,-99.9,-100.00,NNE,23,12.0,15.0,-999,-99.99,,,-99.99,,2013-02-27 13:32:00,
2013-02-27 06:42:00,47.0,-99.9,-100.00,NNE,23,12.0,15.0,-999,-99.99,,,-99.99,,2013-02-27 13:42:00,
2013-02-27 06:53:00,47.0,-99.9,-100.00,NNE,23,12.0,15.0,-999,-99.99,,,-99.99,,2013-02-27 13:53:00,
2013-02-27 07:02:00,47.0,-99.9,-100.00,NNE,12,12.0,14.0,-999,-99.99,,,-99.99,,2013-02-27 14:02:00,
2013-02-27 07:12:00,47.0,-99.9,-100.00,NNE,12,12.0,14.0,-999,-99.99,,,-99.99,,2013-02-27 14:12:00,
2013-02-27 07:22:00,47.0,-99.9,-100.00,NNE,12,12.0,14.0,-999,-99.99,,,-99.99,,2013-02-27 14:22:00,
2013-02-27 07:50:00,47.0,-99.9,-100.00,West,261,2.0,17.0,-999,-99.99,,,-99.99,,2013-02-27 14:50:00,
2013-02-27 08:32:00,47.0,-99.9,-100.00,West,261,2.0,17.0,-999,-99.99,,,-99.99,,2013-02-27 15:32:00,
2013-02-27 08:42:00,47.0,-99.9,-100.00,West,261,2.0,17.0,-999,-99.99,,,-99.99,,2013-02-27 15:42:00,
2013-02-27 11:10:00,59.0,-99.9,-100.00,NE,54,17.0,22.0,-999,-99.99,,,-99.99,,2013-02-27 18:10:00,
2013-02-27 11:30:00,60.0,-99.9,-100.00,NNE,30,18.0,22.0,-999,-99.99,,,-99.99,,2013-02-27 18:30:00,
2013-02-27 11:32:00,58.0,-99.9,-100.00,ENE,72,20.0,26.0,-999,-99.99,,,-99.99,,2013-02-27 18:32:00,
2013-02-27 11:42:00,58.0,-99.9,-100.00,ENE,72,20.0,26.0,-999,-99.99,,,-99.99,,2013-02-27 18:42:00,
2013-02-27 11:52:00,59.0,-99.9,-100.00,NE,54,17.0,22.0,-999,-99.99,,,-99.99,,2013-02-27 18:52:00,
2013-02-27 12:02:00,59.0,-99.9,-100.00,NE,54,17.0,22.0,-999,-99.99,,,-99.99,,2013-02-27 19:02:00,
2013-02-27 12:22:00,60.0,-99.9,-100.00,NNE,30,18.0,22.0,-999,-99.99,,,-99.99,,2013-02-27 19:22:00,
2013-02-27 13:22:00,62.0,-99.9,-100.00,ENE,66,12.0,19.0,-999,-99.99,,,-99.99,,2013-02-27 20:22:00,
2013-02-27 13:32:00,62.0,-99.9,-100.00,NE,53,11.0,21.0,-999,-99.99,,,-99.99,,2013-02-27 20:32:00,
2013-02-27 13:42:00,62.0,-99.9,-100.00,NE,53,11.0,21.0,-999,-99.99,,,-99.99,,2013-02-27 20:42:00,
2013-02-27 13:53:00,62.0,-99.9,-100.00,NE,53,11.0,21.0,-999,-99.99,,,-99.99,,2013-02-27 20:53:00,
2013-02-27 14:02:00,62.0,-99.9,-100.00,NNE,23,12.0,22.0,-999,-99.99,,,-99.99,,2013-02-27 21:02:00,
2013-02-27 14:10:00,63.0,-99.9,-100.00,NNE,30,13.0,16.0,-999,-99.99,,,-99.99,,2013-02-27 21:10:00,
2013-02-27 14:12:00,62.0,-99.9,-100.00,NNE,23,12.0,22.0,-999,-99.99,,,-99.99,,2013-02-27 21:12:00,
2013-02-27 14:22:00,62.0,-99.9,-100.00,NNE,23,12.0,22.0,-999,-99.99,,,-99.99,,2013-02-27 21:22:00,
2013-02-27 14:30:00,63.0,-99.9,-100.00,NNE,31,12.0,23.0,-999,-99.99,,,-99.99,,2013-02-27 21:30:00,
2013-02-27 14:52:00,63.0,-99.9,-100.00,NNE,30,13.0,16.0,-999,-99.99,,,-99.99,,2013-02-27 21:52:00,
2013-02-27 15:02:00,63.0,-99.9,-100.00,NNE,30,13.0,16.0,-999,-99.99,,,-99.99,,2013-02-27 22:02:00,
2013-02-27 15:20:00,64.0,-99.9,-100.00,NE,39,16.0,21.0,-999,-99.99,,,-99.99,,2013-02-27 22:20:00,
2013-02-27 15:22:00,63.0,-99.9,-100.00,NNE,31,12.0,23.0,-999,-99.99,,,-99.99,,2013-02-27 22:22:00,
2013-02-27 15:50:00,65.0,-99.9,-100.00,NE,39,11.0,20.0,-999,-99.99,,,-99.99,,2013-02-27 22:50:00,
2013-02-27 16:02:00,64.0,-99.9,-100.00,NE,39,16.0,21.0,-999,-99.99,,,-99.99,,2013-02-27 23:02:00,
2013-02-27 16:12:00,64.0,-99.9,-100.00,NE,39,16.0,21.0,-999,-99.99,,,-99.99,,2013-02-27 23:12:00,
2013-02-27 16:32:00,65.0,-99.9,-100.00,NE,39,11.0,20.0,-999,-99.99,,,-99.99,,2013-02-27 23:32:00,
2013-02-27 16:42:00,65.0,-99.9,-100.00,NE,39,11.0,20.0,-999,-99.99,,,-99.99,,2013-02-27 23:42:00,
2013-02-27 17:02:00,64.0,-99.9,-100.00,ENE,74,12.0,22.0,-999,-99.99,,,-99.99,,2013-02-28 00:02:00,
2013-02-27 17:13:00,64.0,-99.9,-100.00,ENE,74,12.0,22.0,-999,-99.99,,,-99.99,,2013-02-28 00:13:00,
2013-02-27 17:20:00,65.0,-99.9,-100.00,NNE,19,15.0,22.0,-999,-99.99,,,-99.99,,2013-02-28 00:20:00,
2013-02-27 17:22:00,64.0,-99.9,-100.00,ENE,74,12.0,22.0,-999,-99.99,,,-99.99,,2013-02-28 00:22:00,
2013-02-27 17:32:00,65.0,-99.9,-100.00,ENE,58,20.0,22.0,-999,-99.99,,,-99.99,,2013-02-28 00:32:00,
2013-02-27 17:42:00,65.0,-99.9,-100.00,ENE,58,20.0,22.0,-999,-99.99,,,-99.99,,2013-02-28 00:42:00,
2013-02-27 17:52:00,65.0,-99.9,-100.00,ENE,67,13.0,16.0,-999,-99.99,,,-99.99,,2013-02-28 00:52:00,
2013-02-27 18:01:00,65.0,-99.9,-100.00,NNE,19,15.0,22.0,-999,-99.99,,,-99.99,,2013-02-28 01:01:00,
2013-02-27 18:12:00,65.0,-99.9,-100.00,NNE,19,15.0,22.0,-999,-99.99,,,-99.99,,2013-02-28 01:12:00,
2013-02-27 19:02:00,62.0,-99.9,-100.00,SSW,200,3.0,12.0,-999,-99.99,,,-99.99,,2013-02-28 02:02:00,
2013-02-27 19:10:00,59.0,-99.9,-100.00,NNE,14,8.0,11.0,-999,-99.99,,,-99.99,,2013-02-28 02:10:00,
2013-02-27 19:11:00,62.0,-99.9,-100.00,SSW,200,3.0,12.0,-999,-99.99,,,-99.99,,2013-02-28 02:11:00,
2013-02-27 19:30:00,57.0,-99.9,-100.00,ENE,63,1.0,5.0,-999,-99.99,,,-99.99,,2013-02-28 02:30:00,
2013-02-27 20:02:00,59.0,-99.9,-100.00,NNE,14,8.0,11.0,-999,-99.99,,,-99.99,,2013-02-28 03:02:00,
2013-02-27 20:22:00,57.0,-99.9,-100.00,ENE,63,1.0,5.0,-999,-99.99,,,-99.99,,2013-02-28 03:22:00,
2013-02-27 20:52:00,55.0,-99.9,-100.00,NE,53,10.0,10.0,-999,-99.99,,,-99.99,,2013-02-28 03:52:00,
2013-02-27 21:02:00,54.0,-99.9,-100.00,SE,142,4.0,8.0,-999,-99.99,,,-99.99,,2013-02-28 04:02:00,
2013-02-27 21:11:00,54.0,-99.9,-100.00,SE,142,4.0,8.0,-999,-99.99,,,-99.99,,2013-02-28 04:11:00,
2013-02-27 21:22:00,52.0,-99.9,-100.00,South,187,2.0,6.0,-999,-99.99,,,-99.99,,2013-02-28 04:22:00,
2013-02-27 21:32:00,52.0,-99.9,-100.00,South,187,2.0,6.0,-999,-99.99,,,-99.99,,2013-02-28 04:32:00,
2013-02-27 21:52:00,54.0,-99.9,-100.00,NNW,329,1.0,10.0,-999,-99.99,,,-99.99,,2013-02-28 04:52:00,
2013-02-27 22:02:00,54.0,-99.9,-100.00,NNW,329,1.0,10.0,-999,-99.99,,,-99.99,,2013-02-28 05:02:00,
2013-02-27 22:12:00,54.0,-99.9,-100.00,NNW,329,1.0,10.0,-999,-99.99,,,-99.99,,2013-02-28 05:12:00,
2013-02-27 22:32:00,52.0,-99.9,-100.00,SSE,162,6.0,8.0,-999,-99.99,,,-99.99,,2013-02-28 05:32:00,
2013-02-27 22:43:00,52.0,-99.9,-100.00,SSE,162,6.0,8.0,-999,-99.99,,,-99.99,,2013-02-28 05:43:00,
2013-02-27 23:50:00,53.0,-99.9,-100.00,NE,53,7.0,13.0,-999,-99.99,,,-99.99,,2013-02-28 06:50:00,